WFL1568 EFHK-EHAM
Flight info
| Callsign | WFL1568 |
|---|---|
| Flight time | N/A |
| Altitude | 40000 |
| Route | VALOX Y117 ROSAX DCT KESUR DCT BLUFA |
| Aircraft | A359/H-SDE2E3GHIJ3J4J5LM1ORWXY/LB1D1 |
Departure
| Time | 2026-04-24 04:15 |
|---|---|
| Airport | Helsinki Vantaa Airport (EFHK) |
Arrival
| Time | N/A |
|---|---|
| Airport | Amsterdam Airport Schiphol (EHAM) |
| Time | Latitude | Longitude | Altitude | Speed | Heading |
|---|---|---|---|---|---|
| 2026-04-24 03:48 | 60.31721 | 24.96121 | 168 ft | 0 kts | 153° |
| 2026-04-24 04:04 | 60.31733 | 24.96108 | 168 ft | 4 kts | 153° |
| 2026-04-24 04:04 | 60.31757 | 24.96084 | 168 ft | 4 kts | 153° |
| 2026-04-24 04:05 | 60.31781 | 24.96060 | 168 ft | 4 kts | 153° |
| 2026-04-24 04:05 | 60.31801 | 24.96040 | 168 ft | 0 kts | 153° |
| 2026-04-24 04:08 | 60.31783 | 24.96056 | 168 ft | 12 kts | 158° |
| 2026-04-24 04:08 | 60.31768 | 24.96066 | 168 ft | 0 kts | 161° |
| 2026-04-24 04:10 | 60.31767 | 24.96066 | 168 ft | 1 kts | 165° |
| 2026-04-24 04:11 | 60.31763 | 24.96063 | 168 ft | 2 kts | 185° |
| 2026-04-24 04:11 | 60.31709 | 24.95955 | 168 ft | 0 kts | 227° |
| 2026-04-24 04:12 | 60.31708 | 24.95954 | 168 ft | 1 kts | 227° |
| 2026-04-24 04:12 | 60.31679 | 24.95767 | 168 ft | 24 kts | 249° |
| 2026-04-24 04:12 | 60.31595 | 24.95475 | 168 ft | 25 kts | 230° |
| 2026-04-24 04:12 | 60.31480 | 24.95203 | 168 ft | 26 kts | 226° |
| 2026-04-24 04:13 | 60.31425 | 24.94885 | 168 ft | 24 kts | 248° |
| 2026-04-24 04:13 | 60.31316 | 24.94631 | 168 ft | 25 kts | 226° |
| 2026-04-24 04:13 | 60.31197 | 24.94366 | 168 ft | 26 kts | 228° |
| 2026-04-24 04:13 | 60.31073 | 24.94085 | 168 ft | 27 kts | 230° |
| 2026-04-24 04:14 | 60.31079 | 24.93765 | 167 ft | 25 kts | 325° |
| 2026-04-24 04:14 | 60.31227 | 24.93818 | 168 ft | 24 kts | 44° |
| 2026-04-24 04:14 | 60.31361 | 24.94105 | 170 ft | 42 kts | 48° |
| 2026-04-24 04:14 | 60.31730 | 24.94921 | 169 ft | 112 kts | 47° |
| 2026-04-24 04:15 | 60.32383 | 24.96384 | 211 ft | 165 kts | 46° |
| 2026-04-24 04:15 | 60.33108 | 24.98207 | 808 ft | 168 kts | 49° |
| 2026-04-24 04:15 | 60.33879 | 25.00020 | 1502 ft | 175 kts | 41° |
| 2026-04-24 04:15 | 60.34765 | 25.01712 | 2329 ft | 168 kts | 38° |
| 2026-04-24 04:16 | 60.35572 | 25.03351 | 3152 ft | 164 kts | 40° |
| 2026-04-24 04:16 | 60.36342 | 25.04993 | 3726 ft | 170 kts | 40° |
| 2026-04-24 04:16 | 60.37209 | 25.06847 | 4005 ft | 198 kts | 40° |
| 2026-04-24 04:16 | 60.38248 | 25.09069 | 4046 ft | 236 kts | 41° |
| 2026-04-24 04:17 | 60.39258 | 25.11874 | 4002 ft | 260 kts | 62° |
| 2026-04-24 04:17 | 60.39497 | 25.15545 | 4015 ft | 272 kts | 94° |
| 2026-04-24 04:17 | 60.38805 | 25.19117 | 4307 ft | 281 kts | 116° |
| 2026-04-24 04:17 | 60.37831 | 25.22586 | 5113 ft | 280 kts | 114° |
| 2026-04-24 04:18 | 60.36927 | 25.26031 | 6037 ft | 282 kts | 112° |
| 2026-04-24 04:18 | 60.36027 | 25.29646 | 6905 ft | 286 kts | 111° |
| 2026-04-24 04:18 | 60.35091 | 25.33237 | 7710 ft | 294 kts | 117° |
| 2026-04-24 04:18 | 60.33688 | 25.36245 | 8505 ft | 307 kts | 143° |
| 2026-04-24 04:19 | 60.31684 | 25.37784 | 9372 ft | 313 kts | 172° |
| 2026-04-24 04:19 | 60.29489 | 25.37962 | 10117 ft | 322 kts | 181° |
| 2026-04-24 04:19 | 60.27153 | 25.37847 | 10504 ft | 343 kts | 185° |
| 2026-04-24 04:19 | 60.24787 | 25.36930 | 10820 ft | 358 kts | 202° |
| 2026-04-24 04:20 | 60.22575 | 25.34569 | 11418 ft | 360 kts | 221° |
| 2026-04-24 04:20 | 60.20795 | 25.31094 | 12168 ft | 356 kts | 236° |
| 2026-04-24 04:20 | 60.19235 | 25.27181 | 12966 ft | 361 kts | 238° |
| 2026-04-24 04:20 | 60.17668 | 25.23180 | 13696 ft | 368 kts | 238° |
| 2026-04-24 04:21 | 60.16083 | 25.19166 | 14323 ft | 374 kts | 239° |
| 2026-04-24 04:21 | 60.14443 | 25.15041 | 14980 ft | 380 kts | 239° |
| 2026-04-24 04:21 | 60.12794 | 25.10915 | 15598 ft | 386 kts | 239° |
| 2026-04-24 04:21 | 60.11091 | 25.06668 | 16239 ft | 393 kts | 239° |
| 2026-04-24 04:22 | 60.09362 | 25.02364 | 16866 ft | 399 kts | 239° |
| 2026-04-24 04:22 | 60.07604 | 24.98001 | 17536 ft | 405 kts | 239° |
| 2026-04-24 04:22 | 60.05847 | 24.93648 | 18183 ft | 411 kts | 241° |
| 2026-04-24 04:22 | 60.04033 | 24.89058 | 18845 ft | 415 kts | 242° |
| 2026-04-24 04:23 | 60.02252 | 24.84580 | 19527 ft | 419 kts | 242° |
| 2026-04-24 04:23 | 60.00418 | 24.80020 | 20216 ft | 423 kts | 242° |
| 2026-04-24 04:23 | 59.98564 | 24.75442 | 20873 ft | 427 kts | 242° |
| 2026-04-24 04:23 | 59.96681 | 24.70811 | 21536 ft | 431 kts | 242° |
| 2026-04-24 04:24 | 59.94780 | 24.66150 | 22197 ft | 435 kts | 242° |
| 2026-04-24 04:24 | 59.92854 | 24.61438 | 22851 ft | 440 kts | 242° |
| 2026-04-24 04:24 | 59.90917 | 24.56712 | 23437 ft | 443 kts | 242° |
| 2026-04-24 04:24 | 59.88947 | 24.51921 | 24005 ft | 446 kts | 242° |
| 2026-04-24 04:25 | 59.86978 | 24.47141 | 24547 ft | 450 kts | 242° |
| 2026-04-24 04:25 | 59.84976 | 24.42290 | 25084 ft | 454 kts | 242° |
| 2026-04-24 04:25 | 59.82965 | 24.37430 | 25593 ft | 456 kts | 241° |
| 2026-04-24 04:25 | 59.80984 | 24.32661 | 26264 ft | 456 kts | 241° |
| 2026-04-24 04:26 | 59.78972 | 24.27819 | 26796 ft | 459 kts | 241° |
| 2026-04-24 04:26 | 59.76929 | 24.22906 | 27293 ft | 463 kts | 241° |
| 2026-04-24 04:26 | 59.74866 | 24.17971 | 27833 ft | 467 kts | 240° |
| 2026-04-24 04:26 | 59.72584 | 24.13246 | 28321 ft | 483 kts | 231° |
| 2026-04-24 04:27 | 59.69939 | 24.09032 | 28784 ft | 492 kts | 226° |
| 2026-04-24 04:27 | 59.67171 | 24.05022 | 29304 ft | 496 kts | 224° |
| 2026-04-24 04:27 | 59.64323 | 24.01065 | 29784 ft | 500 kts | 223° |
| 2026-04-24 04:27 | 59.61512 | 23.97211 | 30176 ft | 504 kts | 223° |
| 2026-04-24 04:28 | 59.58567 | 23.93173 | 30562 ft | 507 kts | 223° |
| 2026-04-24 04:28 | 59.55669 | 23.89178 | 30960 ft | 509 kts | 223° |
| 2026-04-24 04:28 | 59.52772 | 23.85151 | 31335 ft | 511 kts | 223° |
| 2026-04-24 04:28 | 59.49998 | 23.80839 | 31703 ft | 505 kts | 231° |
| 2026-04-24 04:29 | 59.47631 | 23.75838 | 32052 ft | 494 kts | 241° |
| 2026-04-24 04:29 | 59.45782 | 23.70275 | 32406 ft | 483 kts | 251° |
| 2026-04-24 04:29 | 59.44233 | 23.64439 | 32753 ft | 482 kts | 253° |
| 2026-04-24 04:29 | 59.42761 | 23.58507 | 33083 ft | 483 kts | 254° |
| 2026-04-24 04:30 | 59.41321 | 23.52540 | 33398 ft | 485 kts | 254° |
| 2026-04-24 04:30 | 59.39943 | 23.46804 | 33694 ft | 487 kts | 254° |
| 2026-04-24 04:30 | 59.38492 | 23.40805 | 33965 ft | 490 kts | 254° |
| 2026-04-24 04:30 | 59.37037 | 23.34853 | 34210 ft | 492 kts | 253° |
| 2026-04-24 04:31 | 59.35544 | 23.28814 | 34534 ft | 492 kts | 253° |
| 2026-04-24 04:31 | 59.34042 | 23.22789 | 34864 ft | 492 kts | 253° |
| 2026-04-24 04:31 | 59.32538 | 23.16787 | 35187 ft | 493 kts | 252° |
| 2026-04-24 04:31 | 59.31015 | 23.10743 | 35512 ft | 490 kts | 252° |
| 2026-04-24 04:32 | 59.29860 | 23.06171 | 35838 ft | 489 kts | 252° |
| 2026-04-24 04:32 | 59.28411 | 23.00438 | 36093 ft | 489 kts | 251° |
| 2026-04-24 04:32 | 59.26898 | 22.94453 | 36397 ft | 488 kts | 251° |
| 2026-04-24 04:32 | 59.25390 | 22.88498 | 36693 ft | 488 kts | 251° |
| 2026-04-24 04:33 | 59.23884 | 22.82558 | 36986 ft | 488 kts | 251° |
| 2026-04-24 04:33 | 59.22374 | 22.76626 | 37274 ft | 488 kts | 251° |
| 2026-04-24 04:33 | 59.20854 | 22.70673 | 37566 ft | 488 kts | 251° |
| 2026-04-24 04:33 | 59.19339 | 22.64761 | 37809 ft | 488 kts | 251° |
| 2026-04-24 04:34 | 59.17819 | 22.58846 | 38097 ft | 488 kts | 251° |
| 2026-04-24 04:34 | 59.16297 | 22.52937 | 38370 ft | 487 kts | 251° |
| 2026-04-24 04:34 | 59.14774 | 22.47040 | 38582 ft | 487 kts | 251° |
| 2026-04-24 04:34 | 59.13249 | 22.41148 | 38762 ft | 488 kts | 251° |
| 2026-04-24 04:35 | 59.11719 | 22.35251 | 38907 ft | 488 kts | 250° |
| 2026-04-24 04:35 | 59.10185 | 22.29367 | 39071 ft | 488 kts | 250° |
| 2026-04-24 04:35 | 59.08641 | 22.23457 | 39250 ft | 487 kts | 250° |
| 2026-04-24 04:35 | 59.07108 | 22.17609 | 39544 ft | 484 kts | 250° |
| 2026-04-24 04:36 | 59.05584 | 22.11799 | 39737 ft | 483 kts | 250° |
| 2026-04-24 04:36 | 59.04052 | 22.05962 | 39828 ft | 485 kts | 250° |
| 2026-04-24 04:36 | 59.00968 | 21.94247 | 39863 ft | 489 kts | 249° |
| 2026-04-24 04:37 | 58.97880 | 21.82613 | 39873 ft | 488 kts | 249° |
| 2026-04-24 04:37 | 58.94757 | 21.70916 | 39873 ft | 488 kts | 249° |
| 2026-04-24 04:38 | 58.91638 | 21.59283 | 39875 ft | 488 kts | 249° |
| 2026-04-24 04:38 | 58.88494 | 21.47616 | 39889 ft | 487 kts | 249° |
| 2026-04-24 04:39 | 58.85352 | 21.36025 | 39892 ft | 487 kts | 249° |
| 2026-04-24 04:39 | 58.82199 | 21.24438 | 39891 ft | 486 kts | 248° |
| 2026-04-24 04:40 | 58.79047 | 21.12917 | 39898 ft | 486 kts | 248° |
| 2026-04-24 04:40 | 58.75880 | 21.01408 | 39903 ft | 486 kts | 248° |
| 2026-04-24 04:41 | 58.73120 | 20.91426 | 39900 ft | 486 kts | 248° |
| 2026-04-24 04:41 | 58.69937 | 20.79965 | 39916 ft | 487 kts | 248° |
| 2026-04-24 04:42 | 58.66738 | 20.68501 | 39916 ft | 487 kts | 248° |
| 2026-04-24 04:42 | 58.63525 | 20.57044 | 39925 ft | 487 kts | 248° |
| 2026-04-24 04:43 | 58.60850 | 20.47543 | 39922 ft | 487 kts | 248° |
| 2026-04-24 04:43 | 58.57621 | 20.36136 | 39929 ft | 486 kts | 247° |
| 2026-04-24 04:44 | 58.54395 | 20.24798 | 39930 ft | 484 kts | 246° |
| 2026-04-24 04:44 | 58.51165 | 20.13496 | 39933 ft | 482 kts | 246° |
| 2026-04-24 04:45 | 58.47957 | 20.02328 | 39965 ft | 482 kts | 246° |
| 2026-04-24 04:45 | 58.44707 | 19.91070 | 39943 ft | 482 kts | 246° |
| 2026-04-24 04:46 | 58.41446 | 19.79826 | 39944 ft | 483 kts | 246° |
| 2026-04-24 04:46 | 58.38487 | 19.69678 | 39955 ft | 483 kts | 246° |
| 2026-04-24 04:47 | 58.35569 | 19.59715 | 39959 ft | 483 kts | 246° |
| 2026-04-24 04:47 | 58.32301 | 19.48596 | 39962 ft | 481 kts | 245° |
| 2026-04-24 04:48 | 58.29026 | 19.37517 | 39966 ft | 480 kts | 245° |
| 2026-04-24 04:48 | 58.25843 | 19.26798 | 39965 ft | 480 kts | 245° |
| 2026-04-24 04:49 | 58.22555 | 19.15768 | 39972 ft | 480 kts | 245° |
| 2026-04-24 04:49 | 58.19252 | 19.04744 | 39979 ft | 480 kts | 245° |
| 2026-04-24 04:50 | 58.16260 | 18.94804 | 39977 ft | 480 kts | 245° |
| 2026-04-24 04:50 | 58.12938 | 18.83814 | 39977 ft | 480 kts | 245° |
| 2026-04-24 04:51 | 58.09614 | 18.72871 | 39976 ft | 480 kts | 244° |
| 2026-04-24 04:51 | 58.06283 | 18.61958 | 39988 ft | 477 kts | 244° |
| 2026-04-24 04:52 | 58.02975 | 18.51172 | 39985 ft | 476 kts | 244° |
| 2026-04-24 04:52 | 57.99625 | 18.40292 | 39982 ft | 477 kts | 244° |
| 2026-04-24 04:53 | 57.96311 | 18.29583 | 39985 ft | 476 kts | 244° |
| 2026-04-24 04:53 | 57.92984 | 18.18880 | 39984 ft | 475 kts | 244° |
| 2026-04-24 04:54 | 57.89599 | 18.08040 | 39983 ft | 475 kts | 244° |
| 2026-04-24 04:54 | 57.86267 | 17.97417 | 39988 ft | 475 kts | 244° |
| 2026-04-24 04:55 | 57.82903 | 17.86741 | 39991 ft | 475 kts | 244° |
| 2026-04-24 04:55 | 57.79521 | 17.76058 | 40000 ft | 475 kts | 244° |
| 2026-04-24 04:56 | 57.76138 | 17.65419 | 39999 ft | 475 kts | 244° |
| 2026-04-24 04:56 | 57.72755 | 17.54813 | 40005 ft | 474 kts | 244° |
| 2026-04-24 04:57 | 57.69359 | 17.44213 | 40004 ft | 474 kts | 244° |
| 2026-04-24 04:57 | 57.65962 | 17.33666 | 40013 ft | 474 kts | 243° |
| 2026-04-24 04:58 | 57.62545 | 17.23115 | 40015 ft | 474 kts | 243° |
| 2026-04-24 04:58 | 57.59120 | 17.12592 | 40015 ft | 475 kts | 243° |
| 2026-04-24 04:59 | 57.55689 | 17.02089 | 40018 ft | 474 kts | 243° |
| 2026-04-24 04:59 | 57.52695 | 16.92957 | 40017 ft | 473 kts | 243° |
| 2026-04-24 05:00 | 57.49291 | 16.82617 | 40022 ft | 472 kts | 243° |
| 2026-04-24 05:00 | 57.45847 | 16.72201 | 40034 ft | 472 kts | 243° |
| 2026-04-24 05:01 | 57.42393 | 16.61801 | 40031 ft | 473 kts | 243° |
| 2026-04-24 05:01 | 57.38935 | 16.51432 | 40011 ft | 473 kts | 243° |
| 2026-04-24 05:02 | 57.35533 | 16.41289 | 40042 ft | 473 kts | 242° |
| 2026-04-24 05:02 | 57.31990 | 16.30744 | 40039 ft | 472 kts | 242° |
| 2026-04-24 05:03 | 57.28511 | 16.20453 | 40039 ft | 473 kts | 242° |
| 2026-04-24 05:03 | 57.25004 | 16.10128 | 40045 ft | 474 kts | 242° |
| 2026-04-24 05:04 | 57.21513 | 15.99893 | 40045 ft | 474 kts | 242° |
| 2026-04-24 05:04 | 57.17988 | 15.89598 | 40032 ft | 473 kts | 242° |
| 2026-04-24 05:05 | 57.14469 | 15.79373 | 40050 ft | 473 kts | 242° |
| 2026-04-24 05:05 | 57.10934 | 15.69144 | 40051 ft | 473 kts | 242° |
| 2026-04-24 05:06 | 57.07505 | 15.59255 | 40054 ft | 473 kts | 242° |
| 2026-04-24 05:06 | 57.03955 | 15.49053 | 40051 ft | 473 kts | 242° |
| 2026-04-24 05:07 | 57.00404 | 15.38894 | 40059 ft | 472 kts | 242° |
| 2026-04-24 05:07 | 56.96850 | 15.28775 | 40059 ft | 471 kts | 242° |
| 2026-04-24 05:08 | 56.93307 | 15.18728 | 40065 ft | 470 kts | 242° |
| 2026-04-24 05:08 | 56.89801 | 15.08822 | 40063 ft | 470 kts | 242° |
| 2026-04-24 05:09 | 56.86336 | 14.99078 | 40032 ft | 470 kts | 242° |
| 2026-04-24 05:09 | 56.84552 | 14.94078 | 40030 ft | 470 kts | 242° |
| 2026-04-24 05:10 | 56.81087 | 14.84397 | 40029 ft | 470 kts | 242° |
| 2026-04-24 05:10 | 56.77501 | 14.74418 | 40015 ft | 470 kts | 242° |
| 2026-04-24 05:11 | 56.73924 | 14.64509 | 40039 ft | 466 kts | 242° |
| 2026-04-24 05:11 | 56.70357 | 14.54665 | 40050 ft | 465 kts | 242° |
| 2026-04-24 05:12 | 56.66782 | 14.44834 | 40061 ft | 465 kts | 242° |
| 2026-04-24 05:12 | 56.63208 | 14.35046 | 40068 ft | 465 kts | 242° |
| 2026-04-24 05:13 | 56.57833 | 14.20386 | 40068 ft | 465 kts | 241° |
| 2026-04-24 05:14 | 56.54241 | 14.10647 | 40069 ft | 465 kts | 241° |
| 2026-04-24 05:14 | 56.50638 | 14.00920 | 40073 ft | 464 kts | 241° |
| 2026-04-24 05:15 | 56.47057 | 13.91298 | 40071 ft | 463 kts | 241° |
| 2026-04-24 05:15 | 56.43457 | 13.81659 | 40073 ft | 462 kts | 241° |
| 2026-04-24 05:16 | 56.39834 | 13.71989 | 40071 ft | 462 kts | 241° |
| 2026-04-24 05:16 | 56.36225 | 13.62396 | 40070 ft | 462 kts | 240° |
| 2026-04-24 05:17 | 56.32632 | 13.52887 | 40068 ft | 462 kts | 240° |
| 2026-04-24 05:17 | 56.29013 | 13.43350 | 40069 ft | 462 kts | 240° |
| 2026-04-24 05:18 | 56.25382 | 13.33815 | 40071 ft | 462 kts | 240° |
| 2026-04-24 05:18 | 56.21744 | 13.24295 | 40038 ft | 462 kts | 240° |
| 2026-04-24 05:19 | 56.18154 | 13.14936 | 40050 ft | 460 kts | 240° |
| 2026-04-24 05:19 | 56.14787 | 13.06197 | 40043 ft | 459 kts | 240° |
| 2026-04-24 05:20 | 56.11142 | 12.96772 | 40066 ft | 459 kts | 240° |
| 2026-04-24 05:20 | 56.07493 | 12.87369 | 40067 ft | 460 kts | 240° |
| 2026-04-24 05:21 | 56.03843 | 12.77996 | 40069 ft | 460 kts | 240° |
| 2026-04-24 05:21 | 56.00173 | 12.68612 | 40068 ft | 460 kts | 240° |
| 2026-04-24 05:22 | 55.96501 | 12.59261 | 40074 ft | 460 kts | 239° |
| 2026-04-24 05:22 | 55.92835 | 12.49959 | 40060 ft | 459 kts | 239° |
| 2026-04-24 05:23 | 55.89159 | 12.40665 | 40079 ft | 458 kts | 239° |
| 2026-04-24 05:23 | 55.85492 | 12.31431 | 40080 ft | 458 kts | 239° |
| 2026-04-24 05:24 | 55.81817 | 12.22207 | 40084 ft | 458 kts | 239° |
| 2026-04-24 05:24 | 55.78115 | 12.12942 | 40081 ft | 458 kts | 239° |
| 2026-04-24 05:25 | 55.74424 | 12.03738 | 40079 ft | 458 kts | 239° |
| 2026-04-24 05:25 | 55.70714 | 11.94528 | 40071 ft | 458 kts | 239° |
| 2026-04-24 05:26 | 55.67005 | 11.85360 | 40085 ft | 459 kts | 239° |
| 2026-04-24 05:26 | 55.63280 | 11.76184 | 40087 ft | 458 kts | 238° |
| 2026-04-24 05:27 | 55.59553 | 11.67043 | 40095 ft | 458 kts | 238° |
| 2026-04-24 05:27 | 55.55825 | 11.57933 | 40102 ft | 457 kts | 238° |
| 2026-04-24 05:28 | 55.52078 | 11.48818 | 40112 ft | 458 kts | 238° |
| 2026-04-24 05:28 | 55.48339 | 11.39750 | 40122 ft | 458 kts | 238° |
| 2026-04-24 05:29 | 55.44601 | 11.30714 | 40124 ft | 458 kts | 238° |
| 2026-04-24 05:29 | 55.40853 | 11.21681 | 40124 ft | 458 kts | 238° |
| 2026-04-24 05:30 | 55.37093 | 11.12654 | 40136 ft | 458 kts | 238° |
| 2026-04-24 05:30 | 55.34041 | 11.05354 | 40134 ft | 456 kts | 237° |
| 2026-04-24 05:31 | 55.30839 | 10.97723 | 40135 ft | 456 kts | 237° |
| 2026-04-24 05:31 | 55.27092 | 10.88817 | 40137 ft | 456 kts | 237° |
| 2026-04-24 05:32 | 55.23286 | 10.79805 | 40137 ft | 457 kts | 237° |
| 2026-04-24 05:32 | 55.19521 | 10.70921 | 40141 ft | 457 kts | 237° |
| 2026-04-24 05:33 | 55.15720 | 10.61987 | 40141 ft | 457 kts | 237° |
| 2026-04-24 05:33 | 55.11917 | 10.53084 | 40148 ft | 457 kts | 237° |
| 2026-04-24 05:34 | 55.06189 | 10.39736 | 40140 ft | 457 kts | 237° |
| 2026-04-24 05:34 | 55.02376 | 10.30885 | 40155 ft | 458 kts | 237° |
| 2026-04-24 05:35 | 54.98537 | 10.22008 | 40156 ft | 458 kts | 237° |
| 2026-04-24 05:35 | 54.94709 | 10.13185 | 40157 ft | 458 kts | 237° |
| 2026-04-24 05:36 | 54.90860 | 10.04348 | 40158 ft | 458 kts | 236° |
| 2026-04-24 05:36 | 54.87000 | 9.95514 | 40157 ft | 458 kts | 236° |
| 2026-04-24 05:37 | 54.83164 | 9.86800 | 40162 ft | 460 kts | 234° |
| 2026-04-24 05:37 | 54.78827 | 9.78589 | 40147 ft | 462 kts | 230° |
| 2026-04-24 05:38 | 54.74455 | 9.70436 | 40156 ft | 460 kts | 231° |
| 2026-04-24 05:38 | 54.70124 | 9.62283 | 40156 ft | 460 kts | 231° |
| 2026-04-24 05:39 | 54.66089 | 9.54682 | 40154 ft | 460 kts | 231° |
| 2026-04-24 05:39 | 54.61756 | 9.46534 | 40159 ft | 460 kts | 230° |
| 2026-04-24 05:40 | 54.57442 | 9.38448 | 40144 ft | 460 kts | 230° |
| 2026-04-24 05:40 | 54.53094 | 9.30325 | 40142 ft | 460 kts | 230° |
| 2026-04-24 05:41 | 54.48753 | 9.22242 | 40152 ft | 460 kts | 230° |
| 2026-04-24 05:41 | 54.44407 | 9.14177 | 40152 ft | 460 kts | 230° |
| 2026-04-24 05:42 | 54.40058 | 9.06130 | 40162 ft | 459 kts | 230° |
| 2026-04-24 05:42 | 54.35714 | 8.98123 | 40176 ft | 458 kts | 229° |
| 2026-04-24 05:43 | 54.31375 | 8.90150 | 40181 ft | 458 kts | 229° |
| 2026-04-24 05:43 | 54.27023 | 8.82180 | 40181 ft | 458 kts | 229° |
| 2026-04-24 05:44 | 54.22701 | 8.74290 | 40184 ft | 458 kts | 229° |
| 2026-04-24 05:44 | 54.18345 | 8.66366 | 40181 ft | 458 kts | 229° |
| 2026-04-24 05:45 | 54.13973 | 8.58437 | 40195 ft | 458 kts | 229° |
| 2026-04-24 05:45 | 54.09604 | 8.50542 | 40196 ft | 458 kts | 229° |
| 2026-04-24 05:46 | 54.05226 | 8.42653 | 40213 ft | 457 kts | 228° |
| 2026-04-24 05:46 | 54.00855 | 8.34803 | 40216 ft | 456 kts | 228° |
| 2026-04-24 05:47 | 53.96489 | 8.26989 | 40219 ft | 456 kts | 228° |
| 2026-04-24 05:47 | 53.92111 | 8.19178 | 40236 ft | 456 kts | 228° |
| 2026-04-24 05:48 | 53.87739 | 8.11405 | 40237 ft | 456 kts | 228° |
| 2026-04-24 05:48 | 53.83364 | 8.03652 | 40238 ft | 456 kts | 228° |
| 2026-04-24 05:49 | 53.78972 | 7.95890 | 40244 ft | 456 kts | 228° |
| 2026-04-24 05:49 | 53.74578 | 7.88153 | 40255 ft | 456 kts | 228° |
| 2026-04-24 05:50 | 53.70201 | 7.80466 | 40259 ft | 457 kts | 227° |
| 2026-04-24 05:50 | 53.65792 | 7.72753 | 40269 ft | 456 kts | 227° |
| 2026-04-24 05:51 | 53.61429 | 7.65144 | 40266 ft | 456 kts | 227° |
| 2026-04-24 05:51 | 53.56985 | 7.57419 | 40270 ft | 456 kts | 227° |
| 2026-04-24 05:52 | 53.52594 | 7.49812 | 39595 ft | 452 kts | 227° |
| 2026-04-24 05:52 | 53.50394 | 7.46008 | 38900 ft | 453 kts | 226° |
| 2026-04-24 05:52 | 53.48202 | 7.42223 | 38037 ft | 454 kts | 226° |
| 2026-04-24 05:53 | 53.45990 | 7.38411 | 37159 ft | 457 kts | 227° |
| 2026-04-24 05:53 | 53.43762 | 7.34577 | 36279 ft | 459 kts | 226° |
| 2026-04-24 05:53 | 53.41526 | 7.30738 | 35453 ft | 461 kts | 227° |
| 2026-04-24 05:53 | 53.39276 | 7.26880 | 34622 ft | 463 kts | 227° |
| 2026-04-24 05:54 | 53.37025 | 7.23025 | 33775 ft | 464 kts | 227° |
| 2026-04-24 05:54 | 53.34777 | 7.19182 | 33156 ft | 459 kts | 226° |
| 2026-04-24 05:54 | 53.32553 | 7.15387 | 32596 ft | 454 kts | 226° |
| 2026-04-24 05:54 | 53.30352 | 7.11637 | 32057 ft | 449 kts | 226° |
| 2026-04-24 05:55 | 53.28175 | 7.07933 | 31508 ft | 445 kts | 226° |
| 2026-04-24 05:55 | 53.26020 | 7.04273 | 30972 ft | 441 kts | 226° |
| 2026-04-24 05:55 | 53.23874 | 7.00631 | 30432 ft | 437 kts | 226° |
| 2026-04-24 05:55 | 53.22278 | 6.97930 | 30010 ft | 434 kts | 226° |
| 2026-04-24 05:56 | 53.20168 | 6.94359 | 29459 ft | 429 kts | 226° |
| 2026-04-24 05:56 | 53.18086 | 6.90843 | 28945 ft | 425 kts | 226° |
| 2026-04-24 05:56 | 53.16046 | 6.87402 | 28446 ft | 420 kts | 226° |
| 2026-04-24 05:56 | 53.14006 | 6.83966 | 27941 ft | 416 kts | 226° |
| 2026-04-24 05:57 | 53.11974 | 6.80547 | 27446 ft | 412 kts | 226° |
| 2026-04-24 05:57 | 53.09979 | 6.77194 | 26948 ft | 408 kts | 226° |
| 2026-04-24 05:57 | 53.07987 | 6.73852 | 26432 ft | 405 kts | 226° |
| 2026-04-24 05:57 | 53.06014 | 6.70547 | 25937 ft | 402 kts | 226° |
| 2026-04-24 05:58 | 53.04045 | 6.67251 | 25370 ft | 401 kts | 226° |
| 2026-04-24 05:58 | 53.02081 | 6.63971 | 24917 ft | 397 kts | 226° |
| 2026-04-24 05:58 | 53.00141 | 6.60735 | 24424 ft | 395 kts | 226° |
| 2026-04-24 05:58 | 52.98207 | 6.57512 | 23939 ft | 393 kts | 226° |
| 2026-04-24 05:59 | 52.96282 | 6.54308 | 23364 ft | 391 kts | 226° |
| 2026-04-24 05:59 | 52.94381 | 6.51151 | 22870 ft | 387 kts | 226° |
| 2026-04-24 05:59 | 52.92481 | 6.47999 | 22364 ft | 384 kts | 226° |
| 2026-04-24 05:59 | 52.90601 | 6.44884 | 21860 ft | 381 kts | 226° |
| 2026-04-24 06:00 | 52.88726 | 6.41781 | 21359 ft | 378 kts | 226° |
| 2026-04-24 06:00 | 52.86886 | 6.38741 | 20869 ft | 376 kts | 226° |
| 2026-04-24 06:00 | 52.85037 | 6.35688 | 20377 ft | 374 kts | 226° |
| 2026-04-24 06:00 | 52.83300 | 6.32516 | 19953 ft | 369 kts | 233° |
| 2026-04-24 06:01 | 52.81807 | 6.29090 | 19503 ft | 366 kts | 237° |
| 2026-04-24 06:01 | 52.80358 | 6.25622 | 19027 ft | 365 kts | 236° |
| 2026-04-24 06:01 | 52.78917 | 6.22177 | 18545 ft | 365 kts | 237° |
| 2026-04-24 06:01 | 52.77469 | 6.18733 | 18012 ft | 363 kts | 237° |
| 2026-04-24 06:02 | 52.76030 | 6.15317 | 17534 ft | 362 kts | 237° |
| 2026-04-24 06:02 | 52.74622 | 6.11979 | 17032 ft | 360 kts | 236° |
| 2026-04-24 06:02 | 52.73189 | 6.08588 | 16560 ft | 358 kts | 237° |
| 2026-04-24 06:02 | 52.71743 | 6.05169 | 16062 ft | 358 kts | 237° |
| 2026-04-24 06:03 | 52.70327 | 6.01830 | 15572 ft | 357 kts | 237° |
| 2026-04-24 06:03 | 52.68907 | 5.98484 | 15091 ft | 356 kts | 237° |
| 2026-04-24 06:03 | 52.67487 | 5.95141 | 14585 ft | 356 kts | 237° |
| 2026-04-24 06:03 | 52.66083 | 5.91844 | 14104 ft | 356 kts | 237° |
| 2026-04-24 06:04 | 52.64664 | 5.88515 | 13551 ft | 355 kts | 237° |
| 2026-04-24 06:04 | 52.63280 | 5.85272 | 13079 ft | 353 kts | 237° |
| 2026-04-24 06:04 | 52.61874 | 5.81982 | 12585 ft | 351 kts | 237° |
| 2026-04-24 06:04 | 52.60468 | 5.78695 | 12096 ft | 349 kts | 237° |
| 2026-04-24 06:05 | 52.59105 | 5.75516 | 11699 ft | 344 kts | 237° |
| 2026-04-24 06:05 | 52.57753 | 5.72368 | 11551 ft | 330 kts | 237° |
| 2026-04-24 06:05 | 52.56470 | 5.69386 | 11418 ft | 316 kts | 237° |
| 2026-04-24 06:05 | 52.55223 | 5.66485 | 11284 ft | 303 kts | 237° |
| 2026-04-24 06:06 | 52.54026 | 5.63702 | 11078 ft | 296 kts | 237° |
| 2026-04-24 06:06 | 52.52838 | 5.60940 | 10771 ft | 294 kts | 237° |
| 2026-04-24 06:06 | 52.51656 | 5.58197 | 10435 ft | 293 kts | 237° |
| 2026-04-24 06:06 | 52.50475 | 5.55481 | 10181 ft | 293 kts | 236° |
| 2026-04-24 06:07 | 52.49181 | 5.52846 | 9961 ft | 299 kts | 232° |
| 2026-04-24 06:07 | 52.47859 | 5.50271 | 9714 ft | 299 kts | 232° |
| 2026-04-24 06:07 | 52.46763 | 5.48118 | 9539 ft | 299 kts | 232° |
| 2026-04-24 06:07 | 52.45503 | 5.45626 | 9310 ft | 297 kts | 232° |
| 2026-04-24 06:08 | 52.44213 | 5.43064 | 9093 ft | 296 kts | 232° |
| 2026-04-24 06:08 | 52.43339 | 5.41324 | 8921 ft | 295 kts | 233° |
| 2026-04-24 06:08 | 52.42018 | 5.38703 | 8704 ft | 294 kts | 232° |
| 2026-04-24 06:08 | 52.41034 | 5.36743 | 8541 ft | 293 kts | 233° |
| 2026-04-24 06:09 | 52.39918 | 5.34516 | 8340 ft | 293 kts | 232° |
| 2026-04-24 06:09 | 52.38659 | 5.32003 | 8118 ft | 292 kts | 232° |
| 2026-04-24 06:09 | 52.37416 | 5.29526 | 7898 ft | 291 kts | 232° |
| 2026-04-24 06:09 | 52.36175 | 5.27057 | 7685 ft | 291 kts | 232° |
| 2026-04-24 06:10 | 52.34866 | 5.24450 | 7455 ft | 290 kts | 233° |
| 2026-04-24 06:10 | 52.33600 | 5.21926 | 7229 ft | 289 kts | 232° |
| 2026-04-24 06:10 | 52.32491 | 5.19732 | 7055 ft | 288 kts | 232° |
| 2026-04-24 06:11 | 52.29895 | 5.14599 | 6590 ft | 287 kts | 232° |
| 2026-04-24 06:11 | 52.28687 | 5.12214 | 6445 ft | 276 kts | 232° |
| 2026-04-24 06:11 | 52.27836 | 5.10536 | 6317 ft | 270 kts | 232° |
| 2026-04-24 06:11 | 52.26796 | 5.08482 | 6116 ft | 263 kts | 232° |
| 2026-04-24 06:12 | 52.25746 | 5.06411 | 5945 ft | 255 kts | 233° |
| 2026-04-24 06:12 | 52.24593 | 5.04315 | 5744 ft | 252 kts | 223° |
| 2026-04-24 06:12 | 52.23151 | 5.02664 | 5506 ft | 253 kts | 212° |
| 2026-04-24 06:12 | 52.21635 | 5.01209 | 5338 ft | 252 kts | 211° |
| 2026-04-24 06:13 | 52.20665 | 5.00280 | 5160 ft | 252 kts | 212° |
| 2026-04-24 06:13 | 52.18770 | 4.98454 | 4675 ft | 254 kts | 212° |
| 2026-04-24 06:13 | 52.17248 | 4.96978 | 4399 ft | 250 kts | 212° |
| 2026-04-24 06:13 | 52.15776 | 4.95550 | 4196 ft | 247 kts | 212° |
| 2026-04-24 06:14 | 52.14327 | 4.94145 | 4052 ft | 238 kts | 212° |
| 2026-04-24 06:14 | 52.12924 | 4.92783 | 3910 ft | 229 kts | 212° |
| 2026-04-24 06:14 | 52.11681 | 4.91278 | 3742 ft | 217 kts | 230° |
| 2026-04-24 06:14 | 52.11069 | 4.89169 | 3549 ft | 202 kts | 265° |
| 2026-04-24 06:15 | 52.11010 | 4.86940 | 3353 ft | 192 kts | 274° |
| 2026-04-24 06:15 | 52.11026 | 4.84840 | 3214 ft | 191 kts | 275° |
| 2026-04-24 06:15 | 52.11044 | 4.82676 | 3038 ft | 189 kts | 275° |
| 2026-04-24 06:15 | 52.11305 | 4.80629 | 2917 ft | 184 kts | 300° |
| 2026-04-24 06:16 | 52.12158 | 4.79192 | 2830 ft | 178 kts | 333° |
| 2026-04-24 06:16 | 52.13251 | 4.78266 | 2771 ft | 177 kts | 337° |
| 2026-04-24 06:16 | 52.14289 | 4.77443 | 2709 ft | 177 kts | 337° |
| 2026-04-24 06:16 | 52.15343 | 4.76750 | 2493 ft | 172 kts | 350° |
| 2026-04-24 06:17 | 52.16530 | 4.76659 | 2267 ft | 170 kts | 5° |
| 2026-04-24 06:17 | 52.17312 | 4.76750 | 2159 ft | 170 kts | 5° |
| 2026-04-24 06:17 | 52.18843 | 4.76875 | 2007 ft | 164 kts | 3° |
| 2026-04-24 06:17 | 52.19589 | 4.76918 | 1903 ft | 156 kts | 2° |
| 2026-04-24 06:18 | 52.20941 | 4.76999 | 1634 ft | 139 kts | 2° |
| 2026-04-24 06:18 | 52.21554 | 4.77034 | 1512 ft | 131 kts | 3° |
| 2026-04-24 06:18 | 52.22401 | 4.77115 | 1350 ft | 122 kts | 5° |
| 2026-04-24 06:18 | 52.23253 | 4.77197 | 1189 ft | 122 kts | 4° |
| 2026-04-24 06:19 | 52.24107 | 4.77274 | 1033 ft | 123 kts | 4° |
| 2026-04-24 06:19 | 52.24935 | 4.77351 | 860 ft | 124 kts | 2° |
| 2026-04-24 06:19 | 52.25737 | 4.77424 | 700 ft | 123 kts | 2° |
| 2026-04-24 06:19 | 52.26623 | 4.77506 | 544 ft | 125 kts | 3° |
| 2026-04-24 06:20 | 52.27463 | 4.77575 | 406 ft | 124 kts | 3° |
| 2026-04-24 06:20 | 52.28082 | 4.77611 | 317 ft | 118 kts | 2° |
| 2026-04-24 06:20 | 52.28863 | 4.77723 | 135 ft | 107 kts | 12° |
| 2026-04-24 06:20 | 52.29572 | 4.77800 | 19 ft | 107 kts | 1° |
| 2026-04-24 06:21 | 52.30060 | 4.77818 | 4 ft | 94 kts | 355° |
| 2026-04-24 06:21 | 52.30277 | 4.77809 | 6 ft | 84 kts | 14° |